Für alle, die die total partielle Finsternis auf dem Nortel heute verpasst haben, ist hier ein kleines, werbefreies Video.

Ein unvergesslicher Tag auf dem Nortel !!

 

(MP4 Video !!)  

 

Musik im Video :
House of the Rising Sun (live) (Montana Skies) / CC BY-NC-SA 3.0

 

 

WebCam

  
Kamera Halle
Kamera Vorfeld
Wetter EDDS

METAR

EDDS 251150Z 28018KT 9999 -SHRA FEW020CB BKN040 09/M01 Q1021 NOSIG =
EDDS 251100Z 2512/2612 29015G30KT 9999 SCT020 BKN035 PROB40 TEMPO 2512/2520 SHRA SCT025CB PROB30 TEMPO 2512/2517 32020G35KT 3000 TSGS BKN013 BKN020CB BECMG 2518/2521 30007KT


TAF

EDDS 251100Z 2512/2612 29015G30KT 9999 SCT020 BKN035 PROB40 TEMPO 2512/2520 SHRA SCT025CB PROB30 TEMPO 2512/2517 32020G35KT 3000 TSGS BKN013 BKN020CB BECMG 2518/2521 30007KT =


SR/SS

05:14 / 17:40 UTC
(EDSO 25-03-2019)